KLBF/LBF METAR and TAF weather

Enter ICAO airport designator
Station Type Date Time Source
KLBF METAR 2019/12/07 04:53 UTC NOAA

KLBF 070453Z AUTO 24005KT 10SM CLR 01/M02 A3020 RMK AO2 SLP247 T00061022


Station Type Date Time Source
KLBF Decoded METAR 2019/12/07 04:53 UTC NOAA

NORTH PLATTE REGIONAL AIRPORT , NE, United States (KLBF) 41-07N 100-40W 847M
Dec 06, 2019 - 11:53 PM EST / 2019.12.07 0453 UTC
Wind: from the WSW (240 degrees) at 6 MPH (5 KT):0
Visibility: 10 mile(s):0
Sky conditions: clear
Temperature: 33.1 F (0.6 C)
Windchill: 28 F (-2 C):1
Dew Point: 28.0 F (-2.2 C)
Relative Humidity: 81%
Pressure (altimeter): 30.2 in. Hg (1022 hPa)
ob: KLBF 070453Z AUTO 24005KT 10SM CLR 01/M02 A3020 RMK AO2 SLP247 T00061022
cycle: 5

Station Type Date Time Source
KLBF TAF 2019/12/06 18:22 UTC NOAA

TAF KLBF 061720Z 0618/0718 19006KT P6SM SCT015
FM062000 20009KT P6SM FEW250
FM070000 19005KT P6SM FEW250
FM070500 VRB03KT P6SM FEW250

Example: see airport list